Time;durP1;ratioP1;P1;durP2;ratioP2;P2;SDS_P1;SDS_P2;PMS_P1;PMS_P2;Temp;Humidity;BMP_temperature;BMP_pressure;BME280_temperature;BME280_humidity;BME280_pressure;Samples;Min_cycle;Max_cycle;Signal;HPM_P1;HPM_P2
2021/08/11 00:00:59;;;;;;;;;;;;;;;;;;5080008;28;19924;-86
2021/08/11 00:03:27;;;;;;;;;;;;;;;;;;5078589;28;19924;-89
2021/08/11 00:05:56;;;;;;;;;;;;;;;;;;5090453;28;19924;-88
2021/08/11 00:08:24;;;;;;;;;;;;;;;;;;5057539;28;19947;-87
2021/08/11 00:10:53;;;;;;;;;;;;;;;;;;5082055;28;19934;-87
2021/08/11 00:13:22;;;;;;;;;;;;;;;;;;5061166;28;19932;-88
2021/08/11 00:15:52;;;;;;;;;;;;;;;;;;5059320;28;19924;-86
2021/08/11 00:18:20;;;;;;;;;;;;;;;;;;5092030;28;19924;-87
2021/08/11 00:20:50;;;;;;;;;;;;;;;;;;5073989;28;19928;-88
2021/08/11 00:23:18;;;;;;;;;;;;;;;;;;5049956;28;19924;-86
2021/08/11 00:25:46;;;;;;;;;;;;;;;;;;5061787;28;19924;-88
2021/08/11 00:28:15;;;;;;;;;;;;;;;;;;5063586;28;20378;-85
2021/08/11 00:30:43;;;;;;;;;;;;;;;;;;5067989;28;19928;-88
2021/08/11 00:33:13;;;;;;;;;;;;;;;;;;5068805;28;19924;-87
2021/08/11 00:35:42;;;;;;;;;;;;;;;;;;5076688;28;19932;-84
2021/08/11 00:38:10;;;;;;;;;;;;;;;;;;5057629;28;20401;-88
2021/08/11 00:40:39;;;;;;;;;;;;;;;;;;5064086;28;19930;-85
2021/08/11 00:43:07;;;;;;;;;;;;;;;;;;5082222;28;19928;-88
2021/08/11 00:45:39;;;;;;;;;;;;;;;;;;5070596;28;19935;-85
2021/08/11 00:48:09;;;;;;;;;;;;;;;;;;5059152;28;19924;-83
2021/08/11 00:50:40;;;;;;;;;;;;;;;;;;5059690;28;19931;-85
2021/08/11 00:53:10;;;;;;;;;;;;;;;;;;5073643;28;19923;-87
2021/08/11 00:55:40;;;;;;;;;;;;;;;;;;5076105;28;19931;-87
2021/08/11 00:58:10;;;;;;;;;;;;;;;;;;5082152;28;19926;-86
2021/08/11 01:00:43;;;;;;;;;;;;;;;;;;5062615;28;19935;-84
2021/08/11 01:03:12;;;;;;;;;;;;;;;;;;5067899;28;19932;-86
2021/08/11 01:05:42;;;;;;;;;;;;;;;;;;5077519;28;19930;-85
2021/08/11 01:08:12;;;;;;;;;;;;;;;;;;5071350;28;19930;-85
2021/08/11 01:10:40;;;;;;;;;;;;;;;;;;5084952;28;19923;-86
2021/08/11 01:13:10;;;;;;;;;;;;;;;;;;5078252;28;20413;-88
2021/08/11 01:15:39;;;;;;;;;;;;;;;;;;5064810;28;19923;-88
2021/08/11 01:18:08;;;;;;;;;;;;;;;;;;5064769;28;19924;-87
2021/08/11 01:20:45;;;;;;;;;;;;;;;;;;5060302;28;19929;-86
2021/08/11 01:23:14;;;;;;;;;;;;;;;;;;5056604;28;19935;-89
2021/08/11 01:25:43;;;;;;;;;;;;;;;;;;5082994;28;19935;-88
2021/08/11 01:28:34;;;;;;;;;;;;;;;;;;5066131;28;19936;-86
2021/08/11 01:31:05;;;;;;;;;;;;;;;;;;5082980;28;19957;-87
2021/08/11 01:33:51;;;;;;;;;;;;;;;;;;5063625;28;19931;-86
2021/08/11 01:36:27;;;;;;;;;;;;;;;;;;5050852;28;19932;-85
2021/08/11 01:38:58;;;;;;;;;;;;;;;;;;5066371;28;20317;-88
2021/08/11 01:41:29;;;;;;;;;;;;;;;;;;5069922;28;19930;-84
2021/08/11 01:43:59;;;;;;;;;;;;;;;;;;5061085;28;19947;-85
2021/08/11 01:46:27;;;;;;;;;;;;;;;;;;5087168;28;19924;-86
2021/08/11 01:48:57;;;;;;;;;;;;;;;;;;5070967;28;19957;-86
2021/08/11 01:51:29;;;;;;;;;;;;;;;;;;5055663;28;19928;-86
2021/08/11 01:53:58;;;;;;;;;;;;;;;;;;5055298;28;20007;-88
2021/08/11 01:56:27;;;;;;;;;;;;;;;;;;5071711;28;19924;-86
2021/08/11 01:58:55;;;;;;;;;;;;;;;;;;5061650;28;19936;-89
2021/08/11 02:01:24;;;;;;;;;;;;;;;;;;5058849;28;20305;-85
2021/08/11 02:03:54;;;;;;;;;;;;;;;;;;5080006;28;19924;-85
2021/08/11 02:06:22;;;;;;;;;;;;;;;;;;5080395;28;19931;-87
2021/08/11 02:08:59;;;;;;;;;;;;;;;;;;5065955;28;20388;-88
2021/08/11 02:11:27;;;;;;;;;;;;;;;;;;5058716;28;19931;-89
2021/08/11 02:13:56;;;;;;;;;;;;;;;;;;5078237;28;19924;-87
2021/08/11 02:16:25;;;;;;;;;;;;;;;;;;5081009;28;19935;-86
2021/08/11 02:18:54;;;;;;;;;;;;;;;;;;5071940;28;19928;-89
2021/08/11 02:21:24;;;;;;;;;;;;;;;;;;5075227;28;20416;-87
2021/08/11 02:23:53;;;;;;;;;;;;;;;;;;5076852;28;19931;-87
2021/08/11 02:26:26;;;;;;;;;;;;;;;;;;5077782;28;19928;-89
2021/08/11 02:28:55;;;;;;;;;;;;;;;;;;5077312;28;19928;-90
2021/08/11 02:31:30;;;;;;;;;;;;;;;;;;5079155;28;20441;-88
2021/08/11 02:34:00;;;;;;;;;;;;;;;;;;5089112;28;19932;-87
2021/08/11 02:36:31;;;;;;;;;;;;;;;;;;5060576;28;19931;-86
2021/08/11 02:39:03;;;;;;;;;;;;;;;;;;5072648;28;19924;-87
2021/08/11 02:41:35;;;;;;;;;;;;;;;;;;5089262;28;19924;-87
2021/08/11 02:44:07;;;;;;;;;;;;;;;;;;5067204;28;19924;-87
2021/08/11 02:46:39;;;;;;;;;;;;;;;;;;5073716;28;19935;-84
2021/08/11 02:49:09;;;;;;;;;;;;;;;;;;5058277;28;20095;-90
2021/08/11 02:51:41;;;;;;;;;;;;;;;;;;5067668;28;19939;-89
2021/08/11 02:54:12;;;;;;;;;;;;;;;;;;5070398;28;19924;-87
2021/08/11 02:56:44;;;;;;;;;;;;;;;;;;5074325;28;19924;-87
2021/08/11 02:59:14;;;;;;;;;;;;;;;;;;5074816;28;19924;-88
2021/08/11 03:01:43;;;;;;;;;;;;;;;;;;5074174;28;19924;-89
2021/08/11 03:04:14;;;;;;;;;;;;;;;;;;5077231;28;19924;-89
2021/08/11 03:06:42;;;;;;;;;;;;;;;;;;5072727;28;19931;-86
2021/08/11 03:09:11;;;;;;;;;;;;;;;;;;5067145;28;19924;-89
2021/08/11 03:11:40;;;;;;;;;;;;;;;;;;5071233;28;19925;-85
2021/08/11 03:14:12;;;;;;;;;;;;;;;;;;5077193;28;19924;-84
2021/08/11 03:16:41;;;;;;;;;;;;;;;;;;5070012;28;19931;-82
2021/08/11 03:19:10;;;;;;;;;;;;;;;;;;5076828;28;19924;-86
2021/08/11 03:21:39;;;;;;;;;;;;;;;;;;5067861;28;19924;-86
2021/08/11 03:24:11;;;;;;;;;;;;;;;;;;5071396;28;19931;-84
2021/08/11 03:26:40;;;;;;;;;;;;;;;;;;5092920;28;19931;-86
2021/08/11 03:29:11;;;;;;;;;;;;;;;;;;5078440;28;19934;-86
2021/08/11 03:31:43;;;;;;;;;;;;;;;;;;5078627;28;19927;-87
2021/08/11 03:34:13;;;;;;;;;;;;;;;;;;5064027;28;19928;-86
2021/08/11 03:36:42;;;;;;;;;;;;;;;;;;5073054;28;19924;-88
2021/08/11 03:39:29;;;;;;;;;;;;;;;;;;5064534;28;19924;-81
2021/08/11 03:41:59;;;;;;;;;;;;;;;;;;5076315;28;19938;-84
2021/08/11 03:44:29;;;;;;;;;;;;;;;;;;5069408;28;19928;-82
2021/08/11 03:46:57;;;;;;;;;;;;;;;;;;5094931;28;19928;-84
2021/08/11 03:49:26;;;;;;;;;;;;;;;;;;5070036;28;19935;-81
2021/08/11 03:51:54;;;;;;;;;;;;;;;;;;5080110;28;19954;-83
2021/08/11 03:54:22;;;;;;;;;;;;;;;;;;5068596;28;19924;-85
2021/08/11 03:56:51;;;;;;;;;;;;;;;;;;5079553;28;19924;-82
2021/08/11 03:59:20;;;;;;;;;;;;;;;;;;5073502;28;19924;-82
2021/08/11 04:01:53;;;;;;;;;;;;;;;;;;5057421;28;19939;-85
2021/08/11 04:04:22;;;;;;;;;;;;;;;;;;5071120;28;19931;-82
2021/08/11 04:06:50;;;;;;;;;;;;;;;;;;5072846;28;19925;-84
2021/08/11 04:09:18;;;;;;;;;;;;;;;;;;5084534;28;19935;-82
2021/08/11 04:11:46;;;;;;;;;;;;;;;;;;5106539;28;19924;-82
2021/08/11 04:14:15;;;;;;;;;;;;;;;;;;5069859;28;20182;-83
2021/08/11 04:16:43;;;;;;;;;;;;;;;;;;5070498;28;19924;-85
2021/08/11 04:19:12;;;;;;;;;;;;;;;;;;5101545;28;19931;-83
2021/08/11 04:22:16;;;;;;;;;;;;;;;;;;5040959;28;19925;-82
2021/08/11 04:24:44;;;;;;;;;;;;;;;;;;5079904;28;19939;-81
2021/08/11 04:27:12;;;;;;;;;;;;;;;;;;5105657;28;19931;-83
2021/08/11 04:29:41;;;;;;;;;;;;;;;;;;5104249;28;19924;-83
2021/08/11 04:32:09;;;;;;;;;;;;;;;;;;5102955;28;19932;-81
2021/08/11 04:34:39;;;;;;;;;;;;;;;;;;5085695;28;19929;-83
2021/08/11 04:37:07;;;;;;;;;;;;;;;;;;5092293;28;20405;-83
2021/08/11 04:39:35;;;;;;;;;;;;;;;;;;5083002;28;19924;-84
2021/08/11 04:42:04;;;;;;;;;;;;;;;;;;5095910;28;19928;-82
2021/08/11 04:44:32;;;;;;;;;;;;;;;;;;5091178;28;19924;-84
2021/08/11 04:47:00;;;;;;;;;;;;;;;;;;5084361;28;19935;-85
2021/08/11 04:49:28;;;;;;;;;;;;;;;;;;5078266;28;19973;-87
2021/08/11 04:51:58;;;;;;;;;;;;;;;;;;5091069;28;19924;-83
2021/08/11 04:54:26;;;;;;;;;;;;;;;;;;5074717;28;20417;-84
2021/08/11 04:56:54;;;;;;;;;;;;;;;;;;5084095;28;19924;-84
2021/08/11 04:59:22;;;;;;;;;;;;;;;;;;5074829;28;19924;-84
2021/08/11 05:01:51;;;;;;;;;;;;;;;;;;5076989;28;19925;-83
2021/08/11 05:04:19;;;;;;;;;;;;;;;;;;5091883;28;20401;-83
2021/08/11 05:06:47;;;;;;;;;;;;;;;;;;5094681;28;19939;-83
2021/08/11 05:09:17;;;;;;;;;;;;;;;;;;5096460;28;20320;-82
2021/08/11 05:11:45;;;;;;;;;;;;;;;;;;5103136;28;19931;-86
2021/08/11 05:14:13;;;;;;;;;;;;;;;;;;5086680;28;20397;-86
2021/08/11 05:16:41;;;;;;;;;;;;;;;;;;5097547;28;19931;-86
2021/08/11 05:19:09;;;;;;;;;;;;;;;;;;5109991;28;19928;-85
2021/08/11 05:21:38;;;;;;;;;;;;;;;;;;5110563;28;19936;-82
2021/08/11 05:24:06;;;;;;;;;;;;;;;;;;5074421;28;19924;-85
2021/08/11 05:26:35;;;;;;;;;;;;;;;;;;5083862;28;19931;-82
2021/08/11 05:29:04;;;;;;;;;;;;;;;;;;5061631;28;19924;-84
2021/08/11 05:31:32;;;;;;;;;;;;;;;;;;5066257;28;19924;-83
2021/08/11 05:34:00;;;;;;;;;;;;;;;;;;5061256;28;19928;-83
2021/08/11 05:36:29;;;;;;;;;;;;;;;;;;5065701;28;19931;-84
2021/08/11 05:38:57;;;;;;;;;;;;;;;;;;5081341;28;19924;-82
2021/08/11 05:41:25;;;;;;;;;;;;;;;;;;5080372;28;19923;-82
2021/08/11 05:43:54;;;;;;;;;;;;;;;;;;5074886;28;19928;-81
2021/08/11 05:46:22;;;;;;;;;;;;;;;;;;5100661;28;20408;-82
2021/08/11 05:48:51;;;;;;;;;;;;;;;;;;5070653;28;19924;-81
2021/08/11 05:51:19;;;;;;;;;;;;;;;;;;5083104;28;19924;-81
2021/08/11 05:53:47;;;;;;;;;;;;;;;;;;5077973;28;19931;-81
2021/08/11 05:56:15;;;;;;;;;;;;;;;;;;5075606;28;19930;-82
2021/08/11 05:58:44;;;;;;;;;;;;;;;;;;5072906;28;20374;-83
2021/08/11 06:01:13;;;;;;;;;;;;;;;;;;5078023;28;19924;-81
2021/08/11 06:03:42;;;;;;;;;;;;;;;;;;5067542;28;19924;-81
2021/08/11 06:06:15;;;;;;;;;;;;;;;;;;5078052;28;19924;-81
2021/08/11 06:08:44;;;;;;;;;;;;;;;;;;5059106;28;19931;-82
2021/08/11 06:11:12;;;;;;;;;;;;;;;;;;5087534;28;19924;-81
2021/08/11 06:13:40;;;;;;;;;;;;;;;;;;5091675;28;19928;-83
2021/08/11 06:16:08;;;;;;;;;;;;;;;;;;5074559;28;19924;-81
2021/08/11 06:18:38;;;;;;;;;;;;;;;;;;5061812;28;19931;-82
2021/08/11 06:21:06;;;;;;;;;;;;;;;;;;5061435;28;20398;-82
2021/08/11 06:23:35;;;;;;;;;;;;;;;;;;5059758;28;20301;-81
2021/08/11 06:26:03;;;;;;;;;;;;;;;;;;5076808;28;19936;-85
2021/08/11 06:28:31;;;;;;;;;;;;;;;;;;5065842;28;20405;-82
2021/08/11 06:31:01;;;;;;;;;;;;;;;;;;5071414;28;19928;-81
2021/08/11 06:33:29;;;;;;;;;;;;;;;;;;5084994;28;19923;-82
2021/08/11 06:35:59;;;;;;;;;;;;;;;;;;5070720;28;19924;-82
2021/08/11 06:38:27;;;;;;;;;;;;;;;;;;5046500;28;19936;-80
2021/08/11 06:40:55;;;;;;;;;;;;;;;;;;5088597;28;19925;-83
2021/08/11 06:43:24;;;;;;;;;;;;;;;;;;5062248;28;19925;-81
2021/08/11 06:45:52;;;;;;;;;;;;;;;;;;5060361;28;20420;-81
2021/08/11 06:48:22;;;;;;;;;;;;;;;;;;5053050;28;19955;-81
2021/08/11 06:50:50;;;;;;;;;;;;;;;;;;5062732;28;19924;-81
2021/08/11 06:53:20;;;;;;;;;;;;;;;;;;5081932;28;19999;-82
2021/08/11 06:55:48;;;;;;;;;;;;;;;;;;5052352;28;20414;-80
2021/08/11 06:58:16;;;;;;;;;;;;;;;;;;5060217;28;20294;-83
2021/08/11 07:00:44;;;;;;;;;;;;;;;;;;5072940;28;20412;-82
2021/08/11 07:03:12;;;;;;;;;;;;;;;;;;5069511;28;19947;-84
2021/08/11 07:05:41;;;;;;;;;;;;;;;;;;5070749;28;19938;-82
2021/08/11 07:08:10;;;;;;;;;;;;;;;;;;5053446;28;19928;-81
2021/08/11 07:10:43;;;;;;;;;;;;;;;;;;5074709;28;19928;-81
2021/08/11 07:13:11;;;;;;;;;;;;;;;;;;5067876;28;19949;-81
2021/08/11 07:15:39;;;;;;;;;;;;;;;;;;5075682;28;19924;-81
2021/08/11 07:18:08;;;;;;;;;;;;;;;;;;5066334;28;20412;-81
2021/08/11 07:20:36;;;;;;;;;;;;;;;;;;5089544;28;20389;-80
2021/08/11 07:23:04;;;;;;;;;;;;;;;;;;5080947;28;19931;-80
2021/08/11 07:25:32;;;;;;;;;;;;;;;;;;5085936;28;19927;-80
2021/08/11 07:28:04;;;;;;;;;;;;;;;;;;5100023;28;19928;-82
2021/08/11 07:30:32;;;;;;;;;;;;;;;;;;5051171;28;19928;-82
2021/08/11 07:33:00;;;;;;;;;;;;;;;;;;5059399;28;19924;-81
2021/08/11 07:35:28;;;;;;;;;;;;;;;;;;5069647;28;19924;-82
2021/08/11 07:37:57;;;;;;;;;;;;;;;;;;5074858;28;19947;-81
2021/08/11 07:40:26;;;;;;;;;;;;;;;;;;5077615;28;19931;-83
2021/08/11 07:42:54;;;;;;;;;;;;;;;;;;5061653;28;20313;-81
2021/08/11 07:45:25;;;;;;;;;;;;;;;;;;5062593;28;19947;-81
2021/08/11 07:47:54;;;;;;;;;;;;;;;;;;5068887;28;19925;-83
2021/08/11 07:50:23;;;;;;;;;;;;;;;;;;5062939;28;19935;-82
2021/08/11 07:52:52;;;;;;;;;;;;;;;;;;5080312;28;19931;-83
2021/08/11 07:55:21;;;;;;;;;;;;;;;;;;5051372;28;19924;-81
2021/08/11 07:57:49;;;;;;;;;;;;;;;;;;5091405;28;19928;-80
2021/08/11 08:00:19;;;;;;;;;;;;;;;;;;5054807;28;19924;-81
2021/08/11 08:02:48;;;;;;;;;;;;;;;;;;5053562;28;19935;-81
2021/08/11 08:05:18;;;;;;;;;;;;;;;;;;5054597;28;19925;-81
2021/08/11 08:07:46;;;;;;;;;;;;;;;;;;5063408;28;19931;-81
2021/08/11 08:10:14;;;;;;;;;;;;;;;;;;5081684;28;19924;-84
2021/08/11 08:12:43;;;;;;;;;;;;;;;;;;5055539;28;19928;-82
2021/08/11 08:15:12;;;;;;;;;;;;;;;;;;5086825;28;19939;-81
2021/08/11 08:17:40;;;;;;;;;;;;;;;;;;5061287;28;19950;-83
2021/08/11 08:20:16;;;;;;;;;;;;;;;;;;5063153;28;19931;-81
2021/08/11 08:22:44;;;;;;;;;;;;;;;;;;5057861;28;20369;-81
2021/08/11 08:25:12;;;;;;;;;;;;;;;;;;5060766;28;19931;-81
2021/08/11 08:27:41;;;;;;;;;;;;;;;;;;5059375;28;20409;-81
2021/08/11 08:30:09;;;;;;;;;;;;;;;;;;5096272;28;19924;-83
2021/08/11 08:32:37;;;;;;;;;;;;;;;;;;5080958;28;19932;-83
2021/08/11 08:35:06;;;;;;;;;;;;;;;;;;5055824;28;19932;-81
2021/08/11 08:37:37;;;;;;;;;;;;;;;;;;5055671;28;19928;-82
2021/08/11 08:40:07;;;;;;;;;;;;;;;;;;5067167;28;19925;-82
2021/08/11 08:42:35;;;;;;;;;;;;;;;;;;5050792;28;19924;-82
2021/08/11 08:45:04;;;;;;;;;;;;;;;;;;5067776;28;19934;-82
2021/08/11 08:47:32;;;;;;;;;;;;;;;;;;5075906;28;19947;-82
2021/08/11 08:50:00;;;;;;;;;;;;;;;;;;5058444;28;19924;-82
2021/08/11 08:52:29;;;;;;;;;;;;;;;;;;5088344;28;20309;-82
2021/08/11 08:54:59;;;;;;;;;;;;;;;;;;5077107;28;19928;-81
2021/08/11 08:57:27;;;;;;;;;;;;;;;;;;5056720;28;19947;-82
2021/08/11 08:59:55;;;;;;;;;;;;;;;;;;5048182;28;19925;-82
2021/08/11 09:02:24;;;;;;;;;;;;;;;;;;5068104;28;20203;-82
2021/08/11 09:04:52;;;;;;;;;;;;;;;;;;5047919;28;19932;-81
2021/08/11 09:07:23;;;;;;;;;;;;;;;;;;5060109;28;23718;-82
2021/08/11 09:09:51;;;;;;;;;;;;;;;;;;5058384;28;19924;-81
2021/08/11 09:12:21;;;;;;;;;;;;;;;;;;5094121;28;20302;-82
2021/08/11 09:14:50;;;;;;;;;;;;;;;;;;5061823;28;19924;-82
2021/08/11 09:17:34;;;;;;;;;;;;;;;;;;5073294;28;19924;-84
2021/08/11 09:20:03;;;;;;;;;;;;;;;;;;5054031;28;19931;-85
2021/08/11 09:22:44;;;;;;;;;;;;;;;;;;5066606;28;19931;-83
2021/08/11 09:25:12;;;;;;;;;;;;;;;;;;5067360;28;19946;-86
2021/08/11 09:27:42;;;;;;;;;;;;;;;;;;5064349;28;19939;-82
2021/08/11 09:30:12;;;;;;;;;;;;;;;;;;5092261;28;20380;-82
2021/08/11 09:33:01;;;;;;;;;;;;;;;;;;5062299;28;20394;-80
2021/08/11 09:35:30;;;;;;;;;;;;;;;;;;5048336;28;19924;-82
2021/08/11 09:37:59;;;;;;;;;;;;;;;;;;5078761;28;19924;-81
2021/08/11 09:40:28;;;;;;;;;;;;;;;;;;5092404;28;19924;-84
2021/08/11 09:42:59;;;;;;;;;;;;;;;;;;5075878;28;19928;-81
2021/08/11 09:45:27;;;;;;;;;;;;;;;;;;5096238;28;19924;-82
2021/08/11 09:47:57;;;;;;;;;;;;;;;;;;5077700;28;19936;-83
2021/08/11 09:50:32;;;;;;;;;;;;;;;;;;5070439;28;19927;-82
2021/08/11 09:53:00;;;;;;;;;;;;;;;;;;5079751;28;19923;-82
2021/08/11 09:55:29;;;;;;;;;;;;;;;;;;5077122;28;19932;-84
2021/08/11 09:57:58;;;;;;;;;;;;;;;;;;5070464;28;19928;-82
2021/08/11 10:00:38;;;;;;;;;;;;;;;;;;5079182;28;19924;-82
2021/08/11 10:03:08;;;;;;;;;;;;;;;;;;5084441;28;19924;-83
2021/08/11 10:05:37;;;;;;;;;;;;;;;;;;5068212;28;19924;-83
2021/08/11 10:08:06;;;;;;;;;;;;;;;;;;5069714;28;19928;-81
2021/08/11 10:10:49;;;;;;;;;;;;;;;;;;5077617;28;19926;-82
2021/08/11 10:13:19;;;;;;;;;;;;;;;;;;5075174;28;19928;-82
2021/08/11 10:15:47;;;;;;;;;;;;;;;;;;5060487;28;19925;-83
2021/08/11 10:18:17;;;;;;;;;;;;;;;;;;5051182;28;19936;-83
2021/08/11 10:20:46;;;;;;;;;;;;;;;;;;5048438;28;19947;-82
2021/08/11 10:23:16;;;;;;;;;;;;;;;;;;5074028;28;19925;-83
2021/08/11 10:25:44;;;;;;;;;;;;;;;;;;5051628;28;19929;-82
2021/08/11 10:28:13;;;;;;;;;;;;;;;;;;5100904;28;19934;-83
2021/08/11 10:30:46;;;;;;;;;;;;;;;;;;5062444;28;19924;-83
2021/08/11 10:33:15;;;;;;;;;;;;;;;;;;5080213;28;19924;-83
2021/08/11 10:35:43;;;;;;;;;;;;;;;;;;5075083;28;19924;-85
2021/08/11 10:38:12;;;;;;;;;;;;;;;;;;5076889;28;19935;-83
2021/08/11 10:40:41;;;;;;;;;;;;;;;;;;5077173;28;19924;-83
2021/08/11 10:43:11;;;;;;;;;;;;;;;;;;5066415;28;19924;-84
2021/08/11 10:45:40;;;;;;;;;;;;;;;;;;5069762;28;19931;-84
2021/08/11 10:48:16;;;;;;;;;;;;;;;;;;5062300;28;19925;-86
2021/08/11 10:50:44;;;;;;;;;;;;;;;;;;5060887;28;19944;-85
2021/08/11 10:53:13;;;;;;;;;;;;;;;;;;5074923;28;19928;-83
2021/08/11 10:55:45;;;;;;;;;;;;;;;;;;5059515;28;19925;-83
2021/08/11 10:58:32;;;;;;;;;;;;;;;;;;5100832;28;19924;-83
2021/08/11 11:01:00;;;;;;;;;;;;;;;;;;5068029;28;19931;-82
2021/08/11 11:03:47;;;;;;;;;;;;;;;;;;5075072;28;19931;-82
2021/08/11 11:06:17;;;;;;;;;;;;;;;;;;5071648;28;19940;-84
2021/08/11 11:08:46;;;;;;;;;;;;;;;;;;5092637;28;19924;-83
2021/08/11 11:11:39;;;;;;;;;;;;;;;;;;5066363;28;20328;-84
2021/08/11 11:14:08;;;;;;;;;;;;;;;;;;5066229;28;19928;-82
2021/08/11 11:16:54;;;;;;;;;;;;;;;;;;5060837;28;19931;-83
2021/08/11 11:19:23;;;;;;;;;;;;;;;;;;5088211;28;19924;-82
2021/08/11 11:21:52;;;;;;;;;;;;;;;;;;5076481;28;19935;-84
2021/08/11 11:24:39;;;;;;;;;;;;;;;;;;5071484;28;19931;-85
2021/08/11 11:27:10;;;;;;;;;;;;;;;;;;5080672;28;20308;-82
2021/08/11 11:29:46;;;;;;;;;;;;;;;;;;5108392;28;19931;-82
2021/08/11 11:32:24;;;;;;;;;;;;;;;;;;5062151;28;19924;-82
2021/08/11 11:35:07;;;;;;;;;;;;;;;;;;5081247;28;20239;-83
2021/08/11 11:37:36;;;;;;;;;;;;;;;;;;5057288;28;19947;-82
2021/08/11 11:40:15;;;;;;;;;;;;;;;;;;5076599;28;19924;-83
2021/08/11 11:42:45;;;;;;;;;;;;;;;;;;5074597;28;20385;-82
2021/08/11 11:45:15;;;;;;;;;;;;;;;;;;5070130;28;19991;-82
2021/08/11 11:48:14;;;;;;;;;;;;;;;;;;5066565;28;19932;-83
2021/08/11 11:50:47;;;;;;;;;;;;;;;;;;5049874;28;20291;-83
2021/08/11 11:53:24;;;;;;;;;;;;;;;;;;5076008;28;19935;-83
2021/08/11 11:55:52;;;;;;;;;;;;;;;;;;5066190;28;19934;-84
2021/08/11 11:58:21;;;;;;;;;;;;;;;;;;5066691;28;19924;-84
2021/08/11 12:00:50;;;;;;;;;;;;;;;;;;5057437;28;19931;-83
2021/08/11 12:03:18;;;;;;;;;;;;;;;;;;5063139;28;19935;-84
2021/08/11 12:05:47;;;;;;;;;;;;;;;;;;5065810;28;19936;-84
2021/08/11 12:08:16;;;;;;;;;;;;;;;;;;5069320;28;19924;-82
2021/08/11 12:10:46;;;;;;;;;;;;;;;;;;5090348;28;19924;-82
2021/08/11 12:13:15;;;;;;;;;;;;;;;;;;5057450;28;20318;-83
2021/08/11 12:15:50;;;;;;;;;;;;;;;;;;5059283;28;20200;-83
2021/08/11 12:18:19;;;;;;;;;;;;;;;;;;5056858;28;19924;-84
2021/08/11 12:20:48;;;;;;;;;;;;;;;;;;5052843;28;19924;-84
2021/08/11 12:23:17;;;;;;;;;;;;;;;;;;5059282;28;19939;-84
2021/08/11 12:25:48;;;;;;;;;;;;;;;;;;5069052;28;19932;-83
2021/08/11 12:28:17;;;;;;;;;;;;;;;;;;5062238;28;20306;-84
2021/08/11 12:30:51;;;;;;;;;;;;;;;;;;5088294;28;19935;-83
2021/08/11 12:33:19;;;;;;;;;;;;;;;;;;5073139;28;19924;-83
2021/08/11 12:35:47;;;;;;;;;;;;;;;;;;5077314;28;19931;-84
2021/08/11 12:38:25;;;;;;;;;;;;;;;;;;5095208;28;19957;-83
2021/08/11 12:40:54;;;;;;;;;;;;;;;;;;5080536;28;19923;-85
2021/08/11 12:43:22;;;;;;;;;;;;;;;;;;5088285;28;20408;-83
2021/08/11 12:45:51;;;;;;;;;;;;;;;;;;5080270;28;19932;-83
2021/08/11 12:48:26;;;;;;;;;;;;;;;;;;5070278;28;19925;-84
2021/08/11 12:50:55;;;;;;;;;;;;;;;;;;5074056;28;20301;-83
2021/08/11 12:53:24;;;;;;;;;;;;;;;;;;5061547;28;19924;-83
2021/08/11 12:56:10;;;;;;;;;;;;;;;;;;5062899;28;20306;-82
2021/08/11 12:59:05;;;;;;;;;;;;;;;;;;5081529;28;19924;-84
2021/08/11 13:01:37;;;;;;;;;;;;;;;;;;5015861;28;19925;-84
2021/08/11 13:04:06;;;;;;;;;;;;;;;;;;5068433;28;19927;-85
2021/08/11 13:06:39;;;;;;;;;;;;;;;;;;5071303;28;20401;-84
2021/08/11 13:09:08;;;;;;;;;;;;;;;;;;5066991;28;20278;-83
2021/08/11 13:11:56;;;;;;;;;;;;;;;;;;5069634;28;19928;-84
2021/08/11 13:14:43;;;;;;;;;;;;;;;;;;5062888;28;19935;-82
2021/08/11 13:17:11;;;;;;;;;;;;;;;;;;5079180;28;20332;-83
2021/08/11 13:19:40;;;;;;;;;;;;;;;;;;5059131;28;19932;-82
2021/08/11 13:22:08;;;;;;;;;;;;;;;;;;5094247;28;19924;-82
2021/08/11 13:24:36;;;;;;;;;;;;;;;;;;5053124;28;19924;-86
2021/08/11 13:27:08;;;;;;;;;;;;;;;;;;5066884;28;19924;-83
2021/08/11 13:29:36;;;;;;;;;;;;;;;;;;5051300;28;19925;-83
2021/08/11 13:32:04;;;;;;;;;;;;;;;;;;5068414;28;19923;-83
2021/08/11 13:34:32;;;;;;;;;;;;;;;;;;5067332;28;19935;-83
2021/08/11 13:37:01;;;;;;;;;;;;;;;;;;5087443;28;19923;-85
2021/08/11 13:39:29;;;;;;;;;;;;;;;;;;5074708;28;19932;-84
2021/08/11 13:41:57;;;;;;;;;;;;;;;;;;5069614;28;19935;-82
2021/08/11 13:44:26;;;;;;;;;;;;;;;;;;5064735;28;19935;-82
2021/08/11 13:46:55;;;;;;;;;;;;;;;;;;5072047;28;19932;-84
2021/08/11 13:49:23;;;;;;;;;;;;;;;;;;5063422;28;19924;-84
2021/08/11 13:51:54;;;;;;;;;;;;;;;;;;5065342;28;19924;-83
2021/08/11 13:54:23;;;;;;;;;;;;;;;;;;5085423;28;19935;-84
2021/08/11 13:56:51;;;;;;;;;;;;;;;;;;5098288;28;19923;-83
2021/08/11 13:59:19;;;;;;;;;;;;;;;;;;5098631;28;19924;-83
2021/08/11 14:01:49;;;;;;;;;;;;;;;;;;5068336;28;19912;-84
2021/08/11 14:04:17;;;;;;;;;;;;;;;;;;5086681;28;20424;-83
2021/08/11 14:06:45;;;;;;;;;;;;;;;;;;5084913;28;19938;-85
2021/08/11 14:09:14;;;;;;;;;;;;;;;;;;5101051;28;19935;-84
2021/08/11 14:11:42;;;;;;;;;;;;;;;;;;5062977;28;19924;-84
2021/08/11 14:14:10;;;;;;;;;;;;;;;;;;5084393;28;20400;-83
2021/08/11 14:16:38;;;;;;;;;;;;;;;;;;5069648;28;19924;-84
2021/08/11 14:19:08;;;;;;;;;;;;;;;;;;5096314;28;19935;-84
2021/08/11 14:21:36;;;;;;;;;;;;;;;;;;5084010;28;20084;-84
2021/08/11 14:24:05;;;;;;;;;;;;;;;;;;5061889;28;19931;-83
2021/08/11 14:26:33;;;;;;;;;;;;;;;;;;5056204;28;19955;-83
2021/08/11 14:29:02;;;;;;;;;;;;;;;;;;5062747;28;19928;-83
2021/08/11 14:31:30;;;;;;;;;;;;;;;;;;5089346;28;19924;-83
2021/08/11 14:33:59;;;;;;;;;;;;;;;;;;5069400;28;19924;-83
2021/08/11 14:36:28;;;;;;;;;;;;;;;;;;5102938;28;19925;-84
2021/08/11 14:38:56;;;;;;;;;;;;;;;;;;5060545;28;19930;-83
2021/08/11 14:41:25;;;;;;;;;;;;;;;;;;5071487;28;19935;-84
2021/08/11 14:43:53;;;;;;;;;;;;;;;;;;5069393;28;20419;-82
2021/08/11 14:46:21;;;;;;;;;;;;;;;;;;5056585;28;19931;-84
2021/08/11 14:48:49;;;;;;;;;;;;;;;;;;5063847;28;20302;-83
2021/08/11 14:51:18;;;;;;;;;;;;;;;;;;5065163;28;19924;-83
2021/08/11 14:53:47;;;;;;;;;;;;;;;;;;5080963;28;19935;-83
2021/08/11 14:56:15;;;;;;;;;;;;;;;;;;5098292;28;20380;-84
2021/08/11 14:58:44;;;;;;;;;;;;;;;;;;5077925;28;19935;-83
2021/08/11 15:01:12;;;;;;;;;;;;;;;;;;5083222;28;19936;-83
2021/08/11 15:03:43;;;;;;;;;;;;;;;;;;5068251;28;19924;-84
2021/08/11 15:06:11;;;;;;;;;;;;;;;;;;5084393;28;20312;-85
2021/08/11 15:08:40;;;;;;;;;;;;;;;;;;5065158;28;19931;-83
2021/08/11 15:11:09;;;;;;;;;;;;;;;;;;5083965;28;20313;-83
2021/08/11 15:13:38;;;;;;;;;;;;;;;;;;5055730;28;19932;-83
2021/08/11 15:16:07;;;;;;;;;;;;;;;;;;5066271;28;19924;-83
2021/08/11 15:18:35;;;;;;;;;;;;;;;;;;5060852;28;20294;-83
2021/08/11 15:21:03;;;;;;;;;;;;;;;;;;5083659;28;19924;-83
2021/08/11 15:23:31;;;;;;;;;;;;;;;;;;5081949;28;19935;-83
2021/08/11 15:25:59;;;;;;;;;;;;;;;;;;5061991;28;19935;-84
2021/08/11 15:28:30;;;;;;;;;;;;;;;;;;5096072;28;19924;-83
2021/08/11 15:30:58;;;;;;;;;;;;;;;;;;5076861;28;19935;-83
2021/08/11 15:33:26;;;;;;;;;;;;;;;;;;5072959;28;19924;-83
2021/08/11 15:35:57;;;;;;;;;;;;;;;;;;5058982;28;19929;-83
2021/08/11 15:38:25;;;;;;;;;;;;;;;;;;5090635;28;19928;-84
2021/08/11 15:40:53;;;;;;;;;;;;;;;;;;5068726;28;20386;-83
2021/08/11 15:43:21;;;;;;;;;;;;;;;;;;5056121;28;19936;-83
2021/08/11 15:45:51;;;;;;;;;;;;;;;;;;5057540;28;19924;-82
2021/08/11 15:48:20;;;;;;;;;;;;;;;;;;5063894;28;19925;-83
2021/08/11 15:50:48;;;;;;;;;;;;;;;;;;5055067;28;19929;-83
2021/08/11 15:53:16;;;;;;;;;;;;;;;;;;5057704;28;19924;-83
2021/08/11 15:55:45;;;;;;;;;;;;;;;;;;5074562;28;19928;-83
2021/08/11 15:58:13;;;;;;;;;;;;;;;;;;5092184;28;19924;-81
2021/08/11 16:00:41;;;;;;;;;;;;;;;;;;5057655;28;19924;-82
2021/08/11 16:03:11;;;;;;;;;;;;;;;;;;5082134;28;19931;-83
2021/08/11 16:05:39;;;;;;;;;;;;;;;;;;5057885;28;19939;-83
2021/08/11 16:08:09;;;;;;;;;;;;;;;;;;5059744;28;19924;-83
2021/08/11 16:10:37;;;;;;;;;;;;;;;;;;5074873;28;19924;-82
2021/08/11 16:13:05;;;;;;;;;;;;;;;;;;5076347;28;19928;-82
2021/08/11 16:15:33;;;;;;;;;;;;;;;;;;5060991;28;19947;-80
2021/08/11 16:18:01;;;;;;;;;;;;;;;;;;5076581;28;20434;-80
2021/08/11 16:20:31;;;;;;;;;;;;;;;;;;5065951;28;19936;-82
2021/08/11 16:22:59;;;;;;;;;;;;;;;;;;5067490;28;19932;-82
2021/08/11 16:25:28;;;;;;;;;;;;;;;;;;5062466;28;19924;-82
2021/08/11 16:27:56;;;;;;;;;;;;;;;;;;5066934;28;19992;-81
2021/08/11 16:30:24;;;;;;;;;;;;;;;;;;5089162;28;19935;-82
2021/08/11 16:32:52;;;;;;;;;;;;;;;;;;5057440;28;20326;-82
2021/08/11 16:35:21;;;;;;;;;;;;;;;;;;5068857;28;19932;-82
2021/08/11 16:37:50;;;;;;;;;;;;;;;;;;5085679;28;19947;-81
2021/08/11 16:40:18;;;;;;;;;;;;;;;;;;5083312;28;19931;-81
2021/08/11 16:42:47;;;;;;;;;;;;;;;;;;5068276;28;19925;-79
2021/08/11 16:45:17;;;;;;;;;;;;;;;;;;5091274;28;20405;-81
2021/08/11 16:47:45;;;;;;;;;;;;;;;;;;5058387;28;20282;-81
2021/08/11 16:50:15;;;;;;;;;;;;;;;;;;5090341;28;19923;-81
2021/08/11 16:52:44;;;;;;;;;;;;;;;;;;5075768;28;20416;-81
2021/08/11 16:55:16;;;;;;;;;;;;;;;;;;5074564;28;19931;-81
2021/08/11 16:57:44;;;;;;;;;;;;;;;;;;5082396;28;20189;-80
2021/08/11 17:00:13;;;;;;;;;;;;;;;;;;5088832;28;19924;-80
2021/08/11 17:02:41;;;;;;;;;;;;;;;;;;5075048;28;19924;-80
2021/08/11 17:05:13;;;;;;;;;;;;;;;;;;5087689;28;19924;-81